« Back
NWS Peachtree City, Ga » Text Product » AHN Terminal Aerodrome Forecast


Printer-friendly Version
Current Version              Previous Versions:   1  2  3  4  5  6  7  8  9  

Terminal Aerodrome Forecast

329
FTAK31 PAJN 010500
TAFAHN
TAF
PAHN 010525Z 0106/0206 10004KT 6SM -RA BR BKN015 OVC030
     FM010800 00000KT 5SM -RA BR BKN007 OVC015
     FM011600 30004KT 6SM -SHRA BR SCT007 OVC015
     FM012100 VRB05KT P6SM -SHRA SCT015 BKN025 OVC050
     FM012300 11005KT P6SM VCSH SCT025 BKN050
      AMD LTD TO CLD VIS AND WIND=

USA.gov is the U.S. government's official web portal to all federal, state and local government web resources and services.